sensor_id;sensor_type;location;lat;lon;timestamp;P1;durP1;ratioP1;P2;durP2;ratioP2
74213;SDS011;62576;55.694;37.494;2023-05-20T00:01:59;4.00;;;1.50;;
74213;SDS011;62576;55.694;37.494;2023-05-20T00:04:30;2.28;;;1.30;;
74213;SDS011;62576;55.694;37.494;2023-05-20T00:07:00;1.52;;;1.23;;
74213;SDS011;62576;55.694;37.494;2023-05-20T00:09:30;4.05;;;1.30;;
74213;SDS011;62576;55.694;37.494;2023-05-20T00:12:00;4.53;;;1.63;;
74213;SDS011;62576;55.694;37.494;2023-05-20T00:14:30;3.13;;;1.58;;
74213;SDS011;62576;55.694;37.494;2023-05-20T00:17:00;3.78;;;1.70;;
74213;SDS011;62576;55.694;37.494;2023-05-20T00:19:32;2.58;;;1.73;;
74213;SDS011;62576;55.694;37.494;2023-05-20T00:22:02;4.15;;;1.60;;
74213;SDS011;62576;55.694;37.494;2023-05-20T00:24:32;8.95;;;1.75;;
74213;SDS011;62576;55.694;37.494;2023-05-20T00:27:02;3.70;;;1.50;;
74213;SDS011;62576;55.694;37.494;2023-05-20T00:29:32;2.35;;;1.70;;
74213;SDS011;62576;55.694;37.494;2023-05-20T00:32:03;1.92;;;1.30;;
74213;SDS011;62576;55.694;37.494;2023-05-20T00:34:34;2.08;;;1.50;;
74213;SDS011;62576;55.694;37.494;2023-05-20T00:37:04;2.08;;;1.50;;
74213;SDS011;62576;55.694;37.494;2023-05-20T00:39:34;1.63;;;1.30;;
74213;SDS011;62576;55.694;37.494;2023-05-20T00:42:04;2.15;;;1.45;;
74213;SDS011;62576;55.694;37.494;2023-05-20T00:44:35;2.40;;;1.45;;
74213;SDS011;62576;55.694;37.494;2023-05-20T00:47:04;2.35;;;1.50;;
74213;SDS011;62576;55.694;37.494;2023-05-20T00:49:36;3.47;;;1.70;;
74213;SDS011;62576;55.694;37.494;2023-05-20T00:52:06;2.67;;;1.45;;
74213;SDS011;62576;55.694;37.494;2023-05-20T00:54:37;3.53;;;1.52;;
74213;SDS011;62576;55.694;37.494;2023-05-20T00:57:08;2.75;;;1.60;;
74213;SDS011;62576;55.694;37.494;2023-05-20T00:59:40;2.58;;;1.50;;
74213;SDS011;62576;55.694;37.494;2023-05-20T01:02:10;2.47;;;1.58;;
74213;SDS011;62576;55.694;37.494;2023-05-20T01:04:41;4.20;;;1.52;;
74213;SDS011;62576;55.694;37.494;2023-05-20T01:07:14;6.35;;;1.48;;
74213;SDS011;62576;55.694;37.494;2023-05-20T01:09:45;4.25;;;1.60;;
74213;SDS011;62576;55.694;37.494;2023-05-20T01:12:16;5.45;;;1.50;;
74213;SDS011;62576;55.694;37.494;2023-05-20T01:14:50;4.85;;;1.40;;
74213;SDS011;62576;55.694;37.494;2023-05-20T01:17:29;5.07;;;1.60;;
74213;SDS011;62576;55.694;37.494;2023-05-20T01:20:01;6.90;;;2.20;;
74213;SDS011;62576;55.694;37.494;2023-05-20T01:22:37;3.70;;;1.67;;
74213;SDS011;62576;55.694;37.494;2023-05-20T01:25:07;3.15;;;1.35;;
74213;SDS011;62576;55.694;37.494;2023-05-20T01:27:37;5.97;;;1.70;;
74213;SDS011;62576;55.694;37.494;2023-05-20T01:30:08;3.60;;;1.42;;
74213;SDS011;62576;55.694;37.494;2023-05-20T01:32:40;3.80;;;1.60;;
74213;SDS011;62576;55.694;37.494;2023-05-20T01:35:14;2.30;;;1.60;;
74213;SDS011;62576;55.694;37.494;2023-05-20T01:37:44;3.00;;;1.50;;
74213;SDS011;62576;55.694;37.494;2023-05-20T01:40:15;4.45;;;1.50;;
74213;SDS011;62576;55.694;37.494;2023-05-20T01:42:46;2.03;;;1.52;;
74213;SDS011;62576;55.694;37.494;2023-05-20T01:47:50;1.65;;;1.40;;
74213;SDS011;62576;55.694;37.494;2023-05-20T01:50:20;4.00;;;1.40;;
74213;SDS011;62576;55.694;37.494;2023-05-20T01:52:52;2.90;;;1.40;;
74213;SDS011;62576;55.694;37.494;2023-05-20T01:55:22;3.30;;;1.65;;
74213;SDS011;62576;55.694;37.494;2023-05-20T01:57:51;4.10;;;1.40;;
74213;SDS011;62576;55.694;37.494;2023-05-20T02:00:21;2.58;;;1.50;;
74213;SDS011;62576;55.694;37.494;2023-05-20T02:02:52;2.65;;;1.55;;
74213;SDS011;62576;55.694;37.494;2023-05-20T02:05:21;1.60;;;1.40;;
74213;SDS011;62576;55.694;37.494;2023-05-20T02:07:53;5.05;;;1.50;;
74213;SDS011;62576;55.694;37.494;2023-05-20T02:10:23;4.50;;;1.50;;
74213;SDS011;62576;55.694;37.494;2023-05-20T02:12:53;2.65;;;1.30;;
74213;SDS011;62576;55.694;37.494;2023-05-20T02:15:22;5.00;;;1.63;;
74213;SDS011;62576;55.694;37.494;2023-05-20T02:17:52;6.60;;;2.13;;
74213;SDS011;62576;55.694;37.494;2023-05-20T02:20:25;3.22;;;1.42;;
74213;SDS011;62576;55.694;37.494;2023-05-20T02:22:56;3.58;;;1.80;;
74213;SDS011;62576;55.694;37.494;2023-05-20T02:25:26;1.73;;;1.20;;
74213;SDS011;62576;55.694;37.494;2023-05-20T02:27:56;5.70;;;1.67;;
74213;SDS011;62576;55.694;37.494;2023-05-20T02:30:26;4.35;;;1.60;;
74213;SDS011;62576;55.694;37.494;2023-05-20T02:32:56;2.00;;;1.50;;
74213;SDS011;62576;55.694;37.494;2023-05-20T02:35:26;2.30;;;1.40;;
74213;SDS011;62576;55.694;37.494;2023-05-20T02:37:53;1.50;;;1.20;;
74213;SDS011;62576;55.694;37.494;2023-05-20T02:40:25;1.70;;;1.40;;
74213;SDS011;62576;55.694;37.494;2023-05-20T02:42:54;2.42;;;1.30;;
74213;SDS011;62576;55.694;37.494;2023-05-20T02:45:24;3.72;;;1.75;;
74213;SDS011;62576;55.694;37.494;2023-05-20T02:47:54;3.75;;;1.27;;
74213;SDS011;62576;55.694;37.494;2023-05-20T02:50:24;3.75;;;1.50;;
74213;SDS011;62576;55.694;37.494;2023-05-20T02:52:56;5.35;;;1.35;;
74213;SDS011;62576;55.694;37.494;2023-05-20T02:55:26;3.97;;;1.65;;
74213;SDS011;62576;55.694;37.494;2023-05-20T02:57:56;3.10;;;1.30;;
74213;SDS011;62576;55.694;37.494;2023-05-20T03:00:26;2.60;;;1.50;;
74213;SDS011;62576;55.694;37.494;2023-05-20T03:02:58;2.50;;;1.48;;
74213;SDS011;62576;55.694;37.494;2023-05-20T03:05:28;2.20;;;1.40;;
74213;SDS011;62576;55.694;37.494;2023-05-20T03:08:01;3.92;;;1.50;;
74213;SDS011;62576;55.694;37.494;2023-05-20T03:10:31;2.33;;;1.50;;
74213;SDS011;62576;55.694;37.494;2023-05-20T03:13:01;1.50;;;1.30;;
74213;SDS011;62576;55.694;37.494;2023-05-20T03:15:31;3.78;;;1.50;;
74213;SDS011;62576;55.694;37.494;2023-05-20T03:18:01;4.03;;;1.52;;
74213;SDS011;62576;55.694;37.494;2023-05-20T03:20:31;3.38;;;1.63;;
74213;SDS011;62576;55.694;37.494;2023-05-20T03:23:05;3.30;;;1.52;;
74213;SDS011;62576;55.694;37.494;2023-05-20T03:25:35;4.05;;;1.30;;
74213;SDS011;62576;55.694;37.494;2023-05-20T03:28:06;2.40;;;1.20;;
74213;SDS011;62576;55.694;37.494;2023-05-20T03:30:33;4.07;;;1.70;;
74213;SDS011;62576;55.694;37.494;2023-05-20T03:33:03;3.83;;;1.65;;
74213;SDS011;62576;55.694;37.494;2023-05-20T03:35:33;2.85;;;1.50;;
74213;SDS011;62576;55.694;37.494;2023-05-20T03:38:04;3.70;;;1.48;;
74213;SDS011;62576;55.694;37.494;2023-05-20T03:40:34;2.45;;;1.38;;
74213;SDS011;62576;55.694;37.494;2023-05-20T03:43:04;2.10;;;1.38;;
74213;SDS011;62576;55.694;37.494;2023-05-20T03:45:34;4.68;;;1.60;;
74213;SDS011;62576;55.694;37.494;2023-05-20T03:48:04;3.10;;;1.40;;
74213;SDS011;62576;55.694;37.494;2023-05-20T03:50:34;3.72;;;1.60;;
74213;SDS011;62576;55.694;37.494;2023-05-20T03:53:06;2.38;;;1.67;;
74213;SDS011;62576;55.694;37.494;2023-05-20T03:55:36;2.38;;;1.40;;
74213;SDS011;62576;55.694;37.494;2023-05-20T03:58:06;3.58;;;1.75;;
74213;SDS011;62576;55.694;37.494;2023-05-20T04:00:36;2.53;;;1.30;;
74213;SDS011;62576;55.694;37.494;2023-05-20T04:03:06;4.88;;;1.50;;
74213;SDS011;62576;55.694;37.494;2023-05-20T04:05:37;2.22;;;1.50;;
74213;SDS011;62576;55.694;37.494;2023-05-20T04:08:08;2.38;;;1.40;;
74213;SDS011;62576;55.694;37.494;2023-05-20T04:10:40;2.17;;;1.60;;
74213;SDS011;62576;55.694;37.494;2023-05-20T04:13:11;2.75;;;1.48;;
74213;SDS011;62576;55.694;37.494;2023-05-20T04:15:41;3.85;;;1.40;;
74213;SDS011;62576;55.694;37.494;2023-05-20T04:18:14;2.92;;;1.48;;
74213;SDS011;62576;55.694;37.494;2023-05-20T04:20:44;3.38;;;1.60;;
74213;SDS011;62576;55.694;37.494;2023-05-20T04:23:16;3.10;;;1.60;;
74213;SDS011;62576;55.694;37.494;2023-05-20T04:25:46;1.67;;;1.30;;
74213;SDS011;62576;55.694;37.494;2023-05-20T04:28:16;4.50;;;1.40;;
74213;SDS011;62576;55.694;37.494;2023-05-20T04:30:46;4.22;;;1.40;;
74213;SDS011;62576;55.694;37.494;2023-05-20T04:33:16;2.92;;;1.52;;
74213;SDS011;62576;55.694;37.494;2023-05-20T04:35:46;3.67;;;1.40;;
74213;SDS011;62576;55.694;37.494;2023-05-20T04:38:13;3.78;;;1.70;;
74213;SDS011;62576;55.694;37.494;2023-05-20T04:40:44;2.17;;;1.42;;
74213;SDS011;62576;55.694;37.494;2023-05-20T04:43:14;5.05;;;1.70;;
74213;SDS011;62576;55.694;37.494;2023-05-20T04:45:44;3.60;;;1.55;;
74213;SDS011;62576;55.694;37.494;2023-05-20T04:48:15;3.60;;;1.50;;
74213;SDS011;62576;55.694;37.494;2023-05-20T04:50:44;2.30;;;1.70;;
74213;SDS011;62576;55.694;37.494;2023-05-20T04:53:15;5.97;;;1.95;;
74213;SDS011;62576;55.694;37.494;2023-05-20T04:55:47;4.50;;;2.03;;
74213;SDS011;62576;55.694;37.494;2023-05-20T04:58:21;6.07;;;2.22;;
74213;SDS011;62576;55.694;37.494;2023-05-20T05:00:52;6.50;;;1.50;;
74213;SDS011;62576;55.694;37.494;2023-05-20T05:03:22;7.47;;;2.78;;
74213;SDS011;62576;55.694;37.494;2023-05-20T05:05:54;2.38;;;1.63;;
74213;SDS011;62576;55.694;37.494;2023-05-20T05:08:24;7.67;;;2.00;;
74213;SDS011;62576;55.694;37.494;2023-05-20T05:10:56;5.43;;;2.15;;
74213;SDS011;62576;55.694;37.494;2023-05-20T05:13:26;6.35;;;1.80;;
74213;SDS011;62576;55.694;37.494;2023-05-20T05:15:59;6.00;;;1.77;;
74213;SDS011;62576;55.694;37.494;2023-05-20T05:18:30;2.88;;;1.63;;
74213;SDS011;62576;55.694;37.494;2023-05-20T05:21:00;5.70;;;2.42;;
74213;SDS011;62576;55.694;37.494;2023-05-20T05:23:32;4.20;;;2.42;;
74213;SDS011;62576;55.694;37.494;2023-05-20T05:26:04;12.05;;;3.88;;
74213;SDS011;62576;55.694;37.494;2023-05-20T05:28:34;3.05;;;1.70;;
74213;SDS011;62576;55.694;37.494;2023-05-20T05:31:04;2.67;;;1.75;;
74213;SDS011;62576;55.694;37.494;2023-05-20T05:33:34;3.97;;;1.80;;
74213;SDS011;62576;55.694;37.494;2023-05-20T05:36:04;3.35;;;1.60;;
74213;SDS011;62576;55.694;37.494;2023-05-20T05:38:34;5.50;;;1.70;;
74213;SDS011;62576;55.694;37.494;2023-05-20T05:41:06;6.00;;;2.58;;
74213;SDS011;62576;55.694;37.494;2023-05-20T05:43:36;3.65;;;1.83;;
74213;SDS011;62576;55.694;37.494;2023-05-20T05:46:06;3.15;;;1.70;;
74213;SDS011;62576;55.694;37.494;2023-05-20T05:48:36;4.25;;;1.92;;
74213;SDS011;62576;55.694;37.494;2023-05-20T05:51:06;4.78;;;1.90;;
74213;SDS011;62576;55.694;37.494;2023-05-20T05:53:36;4.28;;;1.90;;
74213;SDS011;62576;55.694;37.494;2023-05-20T05:56:08;2.50;;;1.80;;
74213;SDS011;62576;55.694;37.494;2023-05-20T05:58:38;3.47;;;1.67;;
74213;SDS011;62576;55.694;37.494;2023-05-20T06:01:08;4.30;;;1.58;;
74213;SDS011;62576;55.694;37.494;2023-05-20T06:03:38;6.25;;;1.83;;
74213;SDS011;62576;55.694;37.494;2023-05-20T06:06:08;3.80;;;1.50;;
74213;SDS011;62576;55.694;37.494;2023-05-20T06:08:38;4.53;;;1.80;;
74213;SDS011;62576;55.694;37.494;2023-05-20T06:11:10;4.07;;;1.80;;
74213;SDS011;62576;55.694;37.494;2023-05-20T06:13:40;5.32;;;1.85;;
74213;SDS011;62576;55.694;37.494;2023-05-20T06:16:13;2.55;;;1.77;;
74213;SDS011;62576;55.694;37.494;2023-05-20T06:21:14;4.30;;;1.90;;
74213;SDS011;62576;55.694;37.494;2023-05-20T06:23:43;4.47;;;1.80;;
74213;SDS011;62576;55.694;37.494;2023-05-20T06:26:15;10.93;;;2.30;;
74213;SDS011;62576;55.694;37.494;2023-05-20T06:28:45;7.60;;;1.67;;
74213;SDS011;62576;55.694;37.494;2023-05-20T06:31:15;2.60;;;1.45;;
74213;SDS011;62576;55.694;37.494;2023-05-20T06:33:45;4.35;;;1.85;;
74213;SDS011;62576;55.694;37.494;2023-05-20T06:36:16;4.63;;;1.90;;
74213;SDS011;62576;55.694;37.494;2023-05-20T06:38:46;5.30;;;1.88;;
74213;SDS011;62576;55.694;37.494;2023-05-20T06:41:18;4.93;;;1.73;;
74213;SDS011;62576;55.694;37.494;2023-05-20T06:46:19;4.90;;;1.85;;
74213;SDS011;62576;55.694;37.494;2023-05-20T06:48:49;3.45;;;1.75;;
74213;SDS011;62576;55.694;37.494;2023-05-20T06:51:18;7.70;;;1.80;;
74213;SDS011;62576;55.694;37.494;2023-05-20T06:53:48;6.20;;;1.75;;
74213;SDS011;62576;55.694;37.494;2023-05-20T06:56:20;5.35;;;1.80;;
74213;SDS011;62576;55.694;37.494;2023-05-20T06:58:50;6.00;;;1.85;;
74213;SDS011;62576;55.694;37.494;2023-05-20T07:01:20;8.25;;;2.10;;
74213;SDS011;62576;55.694;37.494;2023-05-20T07:03:50;6.05;;;1.92;;
74213;SDS011;62576;55.694;37.494;2023-05-20T07:06:20;5.93;;;1.80;;
74213;SDS011;62576;55.694;37.494;2023-05-20T07:08:51;6.20;;;1.80;;
74213;SDS011;62576;55.694;37.494;2023-05-20T07:11:22;5.07;;;1.80;;
74213;SDS011;62576;55.694;37.494;2023-05-20T07:13:53;8.18;;;1.98;;
74213;SDS011;62576;55.694;37.494;2023-05-20T07:16:22;4.80;;;1.60;;
74213;SDS011;62576;55.694;37.494;2023-05-20T07:18:52;6.93;;;1.70;;
74213;SDS011;62576;55.694;37.494;2023-05-20T07:21:22;4.43;;;1.63;;
74213;SDS011;62576;55.694;37.494;2023-05-20T07:23:52;3.10;;;1.75;;
74213;SDS011;62576;55.694;37.494;2023-05-20T07:26:24;3.60;;;1.50;;
74213;SDS011;62576;55.694;37.494;2023-05-20T07:28:53;2.13;;;1.60;;
74213;SDS011;62576;55.694;37.494;2023-05-20T07:31:23;6.32;;;1.90;;
74213;SDS011;62576;55.694;37.494;2023-05-20T07:33:54;3.63;;;1.70;;
74213;SDS011;62576;55.694;37.494;2023-05-20T07:36:25;3.72;;;1.70;;
74213;SDS011;62576;55.694;37.494;2023-05-20T07:38:55;8.52;;;1.77;;
74213;SDS011;62576;55.694;37.494;2023-05-20T07:41:26;5.05;;;1.50;;
74213;SDS011;62576;55.694;37.494;2023-05-20T07:43:56;4.65;;;1.65;;
74213;SDS011;62576;55.694;37.494;2023-05-20T07:46:26;3.83;;;1.50;;
74213;SDS011;62576;55.694;37.494;2023-05-20T07:48:56;4.97;;;1.67;;
74213;SDS011;62576;55.694;37.494;2023-05-20T07:51:26;4.70;;;1.70;;
74213;SDS011;62576;55.694;37.494;2023-05-20T07:53:56;3.70;;;1.70;;
74213;SDS011;62576;55.694;37.494;2023-05-20T07:56:28;8.77;;;1.70;;
74213;SDS011;62576;55.694;37.494;2023-05-20T07:58:59;5.22;;;1.80;;
74213;SDS011;62576;55.694;37.494;2023-05-20T08:01:30;4.18;;;1.67;;
74213;SDS011;62576;55.694;37.494;2023-05-20T08:04:00;7.28;;;1.88;;
74213;SDS011;62576;55.694;37.494;2023-05-20T08:06:30;4.60;;;1.60;;
74213;SDS011;62576;55.694;37.494;2023-05-20T08:09:03;3.95;;;1.90;;
74213;SDS011;62576;55.694;37.494;2023-05-20T08:11:35;5.95;;;1.80;;
74213;SDS011;62576;55.694;37.494;2023-05-20T08:14:05;16.85;;;2.30;;
74213;SDS011;62576;55.694;37.494;2023-05-20T08:16:35;8.77;;;1.70;;
74213;SDS011;62576;55.694;37.494;2023-05-20T08:19:05;5.32;;;1.90;;
74213;SDS011;62576;55.694;37.494;2023-05-20T08:21:35;11.43;;;2.00;;
74213;SDS011;62576;55.694;37.494;2023-05-20T08:24:05;10.57;;;2.60;;
74213;SDS011;62576;55.694;37.494;2023-05-20T08:26:36;7.55;;;2.40;;
74213;SDS011;62576;55.694;37.494;2023-05-20T08:29:06;5.93;;;2.03;;
74213;SDS011;62576;55.694;37.494;2023-05-20T08:31:36;10.93;;;2.55;;
74213;SDS011;62576;55.694;37.494;2023-05-20T08:34:06;8.35;;;2.10;;
74213;SDS011;62576;55.694;37.494;2023-05-20T08:36:36;8.93;;;2.38;;
74213;SDS011;62576;55.694;37.494;2023-05-20T08:39:06;5.78;;;2.03;;
74213;SDS011;62576;55.694;37.494;2023-05-20T08:41:38;8.90;;;1.90;;
74213;SDS011;62576;55.694;37.494;2023-05-20T08:44:08;4.85;;;1.88;;
74213;SDS011;62576;55.694;37.494;2023-05-20T08:46:39;7.43;;;2.00;;
74213;SDS011;62576;55.694;37.494;2023-05-20T08:49:10;5.97;;;1.80;;
74213;SDS011;62576;55.694;37.494;2023-05-20T08:51:40;5.40;;;2.00;;
74213;SDS011;62576;55.694;37.494;2023-05-20T08:54:11;4.18;;;1.92;;
74213;SDS011;62576;55.694;37.494;2023-05-20T08:59:15;3.13;;;1.70;;
74213;SDS011;62576;55.694;37.494;2023-05-20T09:01:46;5.25;;;2.00;;
74213;SDS011;62576;55.694;37.494;2023-05-20T09:04:17;3.38;;;1.70;;
74213;SDS011;62576;55.694;37.494;2023-05-20T09:06:49;7.38;;;1.90;;
74213;SDS011;62576;55.694;37.494;2023-05-20T09:09:21;5.65;;;2.15;;
74213;SDS011;62576;55.694;37.494;2023-05-20T09:11:53;5.10;;;1.87;;
74213;SDS011;62576;55.694;37.494;2023-05-20T09:14:23;12.15;;;2.30;;
74213;SDS011;62576;55.694;37.494;2023-05-20T09:16:54;4.00;;;2.00;;
74213;SDS011;62576;55.694;37.494;2023-05-20T09:21:56;4.22;;;2.00;;
74213;SDS011;62576;55.694;37.494;2023-05-20T09:24:26;3.42;;;1.73;;
74213;SDS011;62576;55.694;37.494;2023-05-20T09:27:00;3.92;;;1.90;;
74213;SDS011;62576;55.694;37.494;2023-05-20T09:29:33;6.60;;;1.80;;
74213;SDS011;62576;55.694;37.494;2023-05-20T09:32:01;3.55;;;1.83;;
74213;SDS011;62576;55.694;37.494;2023-05-20T09:34:33;5.78;;;1.75;;
74213;SDS011;62576;55.694;37.494;2023-05-20T09:37:04;5.90;;;1.70;;
74213;SDS011;62576;55.694;37.494;2023-05-20T09:39:38;5.90;;;2.00;;
74213;SDS011;62576;55.694;37.494;2023-05-20T09:42:19;6.65;;;2.10;;
74213;SDS011;62576;55.694;37.494;2023-05-20T09:44:53;5.50;;;1.90;;
74213;SDS011;62576;55.694;37.494;2023-05-20T09:47:25;4.03;;;1.90;;
74213;SDS011;62576;55.694;37.494;2023-05-20T09:49:56;7.55;;;1.90;;
74213;SDS011;62576;55.694;37.494;2023-05-20T09:52:27;3.70;;;1.73;;
74213;SDS011;62576;55.694;37.494;2023-05-20T09:54:56;6.78;;;2.08;;
74213;SDS011;62576;55.694;37.494;2023-05-20T09:57:31;7.32;;;2.35;;
74213;SDS011;62576;55.694;37.494;2023-05-20T10:00:03;4.35;;;2.00;;
74213;SDS011;62576;55.694;37.494;2023-05-20T10:02:37;4.97;;;1.90;;
74213;SDS011;62576;55.694;37.494;2023-05-20T10:05:13;4.30;;;2.00;;
74213;SDS011;62576;55.694;37.494;2023-05-20T10:07:51;3.92;;;2.00;;
74213;SDS011;62576;55.694;37.494;2023-05-20T10:10:47;5.57;;;2.20;;
74213;SDS011;62576;55.694;37.494;2023-05-20T10:13:26;5.18;;;2.08;;
74213;SDS011;62576;55.694;37.494;2023-05-20T10:16:08;5.30;;;2.10;;
74213;SDS011;62576;55.694;37.494;2023-05-20T10:18:54;5.95;;;2.00;;
74213;SDS011;62576;55.694;37.494;2023-05-20T10:21:27;8.02;;;2.00;;
74213;SDS011;62576;55.694;37.494;2023-05-20T10:24:04;5.25;;;2.08;;
74213;SDS011;62576;55.694;37.494;2023-05-20T10:26:35;4.13;;;1.80;;
74213;SDS011;62576;55.694;37.494;2023-05-20T10:31:52;4.38;;;1.80;;
74213;SDS011;62576;55.694;37.494;2023-05-20T10:34:22;5.75;;;1.98;;
74213;SDS011;62576;55.694;37.494;2023-05-20T10:36:56;5.35;;;1.70;;
74213;SDS011;62576;55.694;37.494;2023-05-20T10:39:27;4.15;;;1.65;;
74213;SDS011;62576;55.694;37.494;2023-05-20T10:42:06;5.18;;;1.85;;
74213;SDS011;62576;55.694;37.494;2023-05-20T10:44:41;4.25;;;1.90;;
74213;SDS011;62576;55.694;37.494;2023-05-20T10:47:12;4.90;;;1.80;;
74213;SDS011;62576;55.694;37.494;2023-05-20T10:49:43;7.07;;;1.85;;
74213;SDS011;62576;55.694;37.494;2023-05-20T10:52:15;3.25;;;1.95;;
74213;SDS011;62576;55.694;37.494;2023-05-20T10:54:46;5.78;;;1.77;;
74213;SDS011;62576;55.694;37.494;2023-05-20T10:57:23;7.22;;;2.03;;
74213;SDS011;62576;55.694;37.494;2023-05-20T10:59:55;6.78;;;2.30;;
74213;SDS011;62576;55.694;37.494;2023-05-20T11:02:26;5.47;;;2.43;;
74213;SDS011;62576;55.694;37.494;2023-05-20T11:04:56;4.57;;;1.98;;
74213;SDS011;62576;55.694;37.494;2023-05-20T11:07:26;3.55;;;1.95;;
74213;SDS011;62576;55.694;37.494;2023-05-20T11:09:57;4.90;;;1.90;;
74213;SDS011;62576;55.694;37.494;2023-05-20T11:12:27;7.57;;;2.00;;
74213;SDS011;62576;55.694;37.494;2023-05-20T11:14:59;8.85;;;2.00;;
74213;SDS011;62576;55.694;37.494;2023-05-20T11:17:30;4.53;;;2.03;;
74213;SDS011;62576;55.694;37.494;2023-05-20T11:20:00;5.50;;;2.22;;
74213;SDS011;62576;55.694;37.494;2023-05-20T11:22:31;6.60;;;1.90;;
74213;SDS011;62576;55.694;37.494;2023-05-20T11:25:03;10.15;;;3.00;;
74213;SDS011;62576;55.694;37.494;2023-05-20T11:27:36;5.88;;;2.65;;
74213;SDS011;62576;55.694;37.494;2023-05-20T11:30:10;5.50;;;1.92;;
74213;SDS011;62576;55.694;37.494;2023-05-20T11:32:43;7.35;;;2.20;;
74213;SDS011;62576;55.694;37.494;2023-05-20T11:35:24;7.18;;;2.03;;
74213;SDS011;62576;55.694;37.494;2023-05-20T11:37:53;3.47;;;1.80;;
74213;SDS011;62576;55.694;37.494;2023-05-20T11:40:25;4.88;;;2.17;;
74213;SDS011;62576;55.694;37.494;2023-05-20T11:42:56;5.18;;;2.20;;
74213;SDS011;62576;55.694;37.494;2023-05-20T11:45:38;7.10;;;2.22;;
74213;SDS011;62576;55.694;37.494;2023-05-20T11:48:14;4.38;;;2.17;;
74213;SDS011;62576;55.694;37.494;2023-05-20T11:50:44;6.68;;;2.10;;
74213;SDS011;62576;55.694;37.494;2023-05-20T11:53:16;7.13;;;2.23;;
74213;SDS011;62576;55.694;37.494;2023-05-20T11:55:47;8.27;;;2.30;;
74213;SDS011;62576;55.694;37.494;2023-05-20T11:58:19;5.97;;;2.20;;
74213;SDS011;62576;55.694;37.494;2023-05-20T12:00:53;5.57;;;2.10;;
74213;SDS011;62576;55.694;37.494;2023-05-20T12:03:23;8.13;;;2.22;;
74213;SDS011;62576;55.694;37.494;2023-05-20T12:05:53;6.35;;;2.35;;
74213;SDS011;62576;55.694;37.494;2023-05-20T12:08:23;6.15;;;2.28;;
74213;SDS011;62576;55.694;37.494;2023-05-20T12:10:54;7.18;;;2.70;;
74213;SDS011;62576;55.694;37.494;2023-05-20T12:13:24;6.05;;;2.55;;
74213;SDS011;62576;55.694;37.494;2023-05-20T12:15:56;6.13;;;2.05;;
74213;SDS011;62576;55.694;37.494;2023-05-20T12:18:26;5.97;;;2.33;;
74213;SDS011;62576;55.694;37.494;2023-05-20T12:20:56;7.43;;;2.42;;
74213;SDS011;62576;55.694;37.494;2023-05-20T12:23:26;4.15;;;2.40;;
74213;SDS011;62576;55.694;37.494;2023-05-20T12:26:01;9.52;;;2.40;;
74213;SDS011;62576;55.694;37.494;2023-05-20T12:28:31;10.15;;;2.33;;
74213;SDS011;62576;55.694;37.494;2023-05-20T12:31:02;6.68;;;2.58;;
74213;SDS011;62576;55.694;37.494;2023-05-20T12:33:32;10.27;;;2.50;;
74213;SDS011;62576;55.694;37.494;2023-05-20T12:36:03;8.82;;;2.65;;
74213;SDS011;62576;55.694;37.494;2023-05-20T12:38:31;8.25;;;2.90;;
74213;SDS011;62576;55.694;37.494;2023-05-20T12:41:01;7.70;;;2.50;;
74213;SDS011;62576;55.694;37.494;2023-05-20T12:43:31;5.28;;;2.50;;
74213;SDS011;62576;55.694;37.494;2023-05-20T12:46:02;4.20;;;2.28;;
74213;SDS011;62576;55.694;37.494;2023-05-20T12:48:33;5.88;;;2.40;;
74213;SDS011;62576;55.694;37.494;2023-05-20T12:51:04;6.38;;;2.30;;
74213;SDS011;62576;55.694;37.494;2023-05-20T12:53:34;9.85;;;4.32;;
74213;SDS011;62576;55.694;37.494;2023-05-20T12:56:05;6.20;;;2.42;;
74213;SDS011;62576;55.694;37.494;2023-05-20T12:58:35;4.82;;;2.20;;
74213;SDS011;62576;55.694;37.494;2023-05-20T13:01:06;5.93;;;2.50;;
74213;SDS011;62576;55.694;37.494;2023-05-20T13:03:36;8.65;;;2.67;;
74213;SDS011;62576;55.694;37.494;2023-05-20T13:06:06;6.85;;;2.42;;
74213;SDS011;62576;55.694;37.494;2023-05-20T13:08:36;7.00;;;2.53;;
74213;SDS011;62576;55.694;37.494;2023-05-20T13:11:06;5.93;;;2.28;;
74213;SDS011;62576;55.694;37.494;2023-05-20T13:13:36;10.85;;;2.40;;
74213;SDS011;62576;55.694;37.494;2023-05-20T13:16:10;9.15;;;2.10;;
74213;SDS011;62576;55.694;37.494;2023-05-20T13:18:40;7.22;;;2.35;;
74213;SDS011;62576;55.694;37.494;2023-05-20T13:21:12;6.20;;;2.30;;
74213;SDS011;62576;55.694;37.494;2023-05-20T13:23:43;9.63;;;2.43;;
74213;SDS011;62576;55.694;37.494;2023-05-20T13:26:13;8.30;;;2.58;;
74213;SDS011;62576;55.694;37.494;2023-05-20T13:28:43;7.03;;;2.47;;
74213;SDS011;62576;55.694;37.494;2023-05-20T13:31:15;7.13;;;2.55;;
74213;SDS011;62576;55.694;37.494;2023-05-20T13:33:45;10.48;;;2.70;;
74213;SDS011;62576;55.694;37.494;2023-05-20T13:36:15;7.65;;;2.75;;
74213;SDS011;62576;55.694;37.494;2023-05-20T13:38:42;8.48;;;2.33;;
74213;SDS011;62576;55.694;37.494;2023-05-20T13:41:12;4.85;;;2.33;;
74213;SDS011;62576;55.694;37.494;2023-05-20T13:43:43;5.97;;;2.50;;
74213;SDS011;62576;55.694;37.494;2023-05-20T13:46:15;7.65;;;2.47;;
74213;SDS011;62576;55.694;37.494;2023-05-20T13:48:45;11.30;;;2.30;;
74213;SDS011;62576;55.694;37.494;2023-05-20T13:51:15;6.55;;;2.25;;
74213;SDS011;62576;55.694;37.494;2023-05-20T13:53:45;8.07;;;2.28;;
74213;SDS011;62576;55.694;37.494;2023-05-20T13:56:15;5.68;;;3.00;;
74213;SDS011;62576;55.694;37.494;2023-05-20T13:58:45;6.43;;;2.45;;
74213;SDS011;62576;55.694;37.494;2023-05-20T14:01:16;8.65;;;2.60;;
74213;SDS011;62576;55.694;37.494;2023-05-20T14:03:46;8.93;;;2.50;;
74213;SDS011;62576;55.694;37.494;2023-05-20T14:06:16;5.90;;;2.40;;
74213;SDS011;62576;55.694;37.494;2023-05-20T14:08:46;6.53;;;2.50;;
74213;SDS011;62576;55.694;37.494;2023-05-20T14:11:19;7.00;;;2.20;;
74213;SDS011;62576;55.694;37.494;2023-05-20T14:13:49;11.50;;;2.67;;
74213;SDS011;62576;55.694;37.494;2023-05-20T14:16:21;8.32;;;2.40;;
74213;SDS011;62576;55.694;37.494;2023-05-20T14:18:51;7.38;;;2.47;;
74213;SDS011;62576;55.694;37.494;2023-05-20T14:21:20;7.95;;;2.50;;
74213;SDS011;62576;55.694;37.494;2023-05-20T14:23:50;4.85;;;2.65;;
74213;SDS011;62576;55.694;37.494;2023-05-20T14:26:20;5.65;;;2.33;;
74213;SDS011;62576;55.694;37.494;2023-05-20T14:28:50;7.22;;;2.40;;
74213;SDS011;62576;55.694;37.494;2023-05-20T14:31:22;9.75;;;2.40;;
74213;SDS011;62576;55.694;37.494;2023-05-20T14:33:52;6.07;;;2.53;;
74213;SDS011;62576;55.694;37.494;2023-05-20T14:36:22;5.68;;;2.50;;
74213;SDS011;62576;55.694;37.494;2023-05-20T14:38:52;6.35;;;2.70;;
74213;SDS011;62576;55.694;37.494;2023-05-20T14:41:22;8.43;;;2.78;;
74213;SDS011;62576;55.694;37.494;2023-05-20T14:43:52;7.85;;;3.00;;
74213;SDS011;62576;55.694;37.494;2023-05-20T14:46:23;8.50;;;2.60;;
74213;SDS011;62576;55.694;37.494;2023-05-20T14:48:55;4.88;;;2.30;;
74213;SDS011;62576;55.694;37.494;2023-05-20T14:51:25;6.65;;;2.50;;
74213;SDS011;62576;55.694;37.494;2023-05-20T14:53:55;7.85;;;2.80;;
74213;SDS011;62576;55.694;37.494;2023-05-20T14:56:25;7.05;;;3.20;;
74213;SDS011;62576;55.694;37.494;2023-05-20T14:58:55;4.95;;;2.63;;
74213;SDS011;62576;55.694;37.494;2023-05-20T15:01:27;7.50;;;3.05;;
74213;SDS011;62576;55.694;37.494;2023-05-20T15:03:57;8.27;;;2.65;;
74213;SDS011;62576;55.694;37.494;2023-05-20T15:06:26;9.75;;;2.70;;
74213;SDS011;62576;55.694;37.494;2023-05-20T15:08:57;7.22;;;2.80;;
74213;SDS011;62576;55.694;37.494;2023-05-20T15:11:27;11.20;;;2.70;;